Time;durP1;ratioP1;P1;durP2;ratioP2;P2;SDS_P1;SDS_P2;PMS_P1;PMS_P2;Temp;Humidity;BMP_temperature;BMP_pressure;BME280_temperature;BME280_humidity;BME280_pressure;Samples;Min_cycle;Max_cycle;Signal;HPM_P1;HPM_P2
2021/09/08 00:00:40;;;;;;;8.38;7.97;;;25.40;45.70;;;;;;5033029;28;20030;-79
2021/09/08 00:03:06;;;;;;;7.65;7.25;;;25.40;45.80;;;;;;5031816;28;20385;-80
2021/09/08 00:05:32;;;;;;;7.93;7.53;;;25.40;45.90;;;;;;5033117;28;20034;-79
2021/09/08 00:07:59;;;;;;;7.97;7.57;;;25.40;45.90;;;;;;5032485;28;20049;-79
2021/09/08 00:10:25;;;;;;;7.97;7.47;;;25.30;46.00;;;;;;5031681;28;20029;-79
2021/09/08 00:12:51;;;;;;;8.75;8.35;;;25.30;46.10;;;;;;5032274;28;20029;-80
2021/09/08 00:15:17;;;;;;;7.15;6.82;;;25.20;46.00;;;;;;5031292;28;20025;-79
2021/09/08 00:17:43;;;;;;;7.45;7.05;;;25.20;46.20;;;;;;5032761;28;20037;-79
2021/09/08 00:20:10;;;;;;;6.68;6.07;;;25.10;46.20;;;;;;5030812;28;20040;-79
2021/09/08 00:22:36;;;;;;;6.65;6.35;;;25.10;46.30;;;;;;5031217;28;20112;-79
2021/09/08 00:25:04;;;;;;;6.35;6.05;;;25.00;46.40;;;;;;5031491;28;20040;-79
2021/09/08 00:27:30;;;;;;;5.95;5.65;;;24.90;46.50;;;;;;5031471;28;20387;-79
2021/09/08 00:29:56;;;;;;;5.20;4.95;;;24.90;46.50;;;;;;5032532;28;20032;-79
2021/09/08 00:32:22;;;;;;;5.50;5.20;;;24.80;46.60;;;;;;5031340;28;20409;-79
2021/09/08 00:34:48;;;;;;;5.53;5.22;;;24.80;46.70;;;;;;5031419;28;20026;-79
2021/09/08 00:37:14;;;;;;;6.25;5.75;;;24.80;46.70;;;;;;5032237;28;20033;-79
2021/09/08 00:39:40;;;;;;;5.20;4.97;;;24.80;46.80;;;;;;5032836;28;20466;-79
2021/09/08 00:42:11;;;;;;;5.03;4.80;;;24.70;46.80;;;;;;5031338;28;20033;-79
2021/09/08 00:44:37;;;;;;;4.93;4.72;;;24.70;46.90;;;;;;5032213;28;20393;-79
2021/09/08 00:47:03;;;;;;;5.85;5.55;;;24.70;47.00;;;;;;5031755;28;20101;-79
2021/09/08 00:49:29;;;;;;;5.70;5.40;;;24.60;47.10;;;;;;5031180;28;20042;-80
2021/09/08 00:51:56;;;;;;;5.40;5.13;;;24.60;47.20;;;;;;5031324;28;20036;-80
2021/09/08 00:54:22;;;;;;;5.60;5.30;;;24.50;47.20;;;;;;5032262;28;20025;-79
2021/09/08 00:56:49;;;;;;;5.80;5.50;;;24.40;47.40;;;;;;5030850;28;20030;-79
2021/09/08 00:59:15;;;;;;;5.00;4.80;;;24.40;47.50;;;;;;5030708;28;20030;-79
2021/09/08 01:01:41;;;;;;;5.50;5.20;;;24.40;47.60;;;;;;5031669;28;20021;-79
2021/09/08 01:04:07;;;;;;;5.30;5.10;;;24.40;47.60;;;;;;5032733;28;20037;-79
2021/09/08 01:06:33;;;;;;;5.50;5.20;;;24.40;47.60;;;;;;5031522;28;20042;-79
2021/09/08 01:08:59;;;;;;;5.05;4.85;;;24.40;47.70;;;;;;5030441;28;20049;-80
2021/09/08 01:11:26;;;;;;;5.82;5.32;;;24.40;47.60;;;;;;5013951;28;20044;-79
2021/09/08 01:13:52;;;;;;;5.20;4.90;;;24.40;47.70;;;;;;5031807;28;20504;-79
2021/09/08 01:16:18;;;;;;;5.18;4.97;;;24.30;47.70;;;;;;5031408;28;20033;-79
2021/09/08 01:18:45;;;;;;;5.05;4.75;;;24.30;47.70;;;;;;5032464;28;20036;-79
2021/09/08 01:21:11;;;;;;;5.10;4.80;;;24.30;47.90;;;;;;5010234;28;20038;-79
2021/09/08 01:23:37;;;;;;;5.50;5.25;;;24.20;47.90;;;;;;5023005;28;20029;-80
2021/09/08 01:26:04;;;;;;;5.50;5.20;;;24.20;48.00;;;;;;5030543;28;20033;-79
2021/09/08 01:28:30;;;;;;;5.80;5.30;;;24.20;48.10;;;;;;5014126;28;20061;-80
2021/09/08 01:30:56;;;;;;;5.43;5.13;;;24.20;48.10;;;;;;5030810;28;20033;-79
2021/09/08 01:33:23;;;;;;;5.50;5.20;;;24.10;48.10;;;;;;5030626;28;20379;-79
2021/09/08 01:35:49;;;;;;;9.52;5.80;;;24.10;48.20;;;;;;5031073;28;20501;-80
2021/09/08 01:38:16;;;;;;;5.70;5.40;;;24.10;48.30;;;;;;5031745;28;20030;-79
2021/09/08 01:40:42;;;;;;;5.93;5.43;;;24.10;48.40;;;;;;5031633;28;20025;-79
2021/09/08 01:43:08;;;;;;;5.28;4.97;;;24.00;48.50;;;;;;5010997;28;20046;-79
2021/09/08 01:45:37;;;;;;;5.20;5.00;;;24.00;48.50;;;;;;5035270;28;20037;-79
2021/09/08 01:48:03;;;;;;;5.22;4.93;;;23.90;48.60;;;;;;5035421;28;20397;-80
2021/09/08 01:50:29;;;;;;;5.53;5.22;;;23.90;48.70;;;;;;5035143;28;20040;-79
2021/09/08 01:52:55;;;;;;;5.28;4.97;;;23.90;49.40;;;;;;5035426;28;20040;-79
2021/09/08 01:55:21;;;;;;;5.05;4.85;;;23.90;48.90;;;;;;5035652;28;20493;-79
2021/09/08 01:57:47;;;;;;;4.80;4.60;;;23.80;49.00;;;;;;5034399;28;20044;-79
2021/09/08 02:00:14;;;;;;;5.00;4.80;;;23.80;49.10;;;;;;5012278;28;20041;-80
2021/09/08 02:02:40;;;;;;;15.00;4.97;;;23.80;49.20;;;;;;5025594;28;20044;-79
2021/09/08 02:05:06;;;;;;;4.50;4.30;;;23.80;49.20;;;;;;5024704;28;20025;-79
2021/09/08 02:07:33;;;;;;;4.95;4.65;;;23.70;49.20;;;;;;5015059;28;20041;-79
2021/09/08 02:09:59;;;;;;;4.60;4.40;;;23.70;49.30;;;;;;5033914;28;20052;-79
2021/09/08 02:12:25;;;;;;;4.95;4.68;;;23.70;49.40;;;;;;5030556;28;20556;-79
2021/09/08 02:14:51;;;;;;;4.88;4.68;;;23.70;49.40;;;;;;5030626;28;20041;-79
2021/09/08 02:17:17;;;;;;;4.75;4.55;;;23.70;49.50;;;;;;5028633;28;20105;-79
2021/09/08 02:19:43;;;;;;;5.15;4.85;;;23.60;49.50;;;;;;5030172;28;20025;-79
2021/09/08 02:22:09;;;;;;;4.65;4.45;;;23.60;49.50;;;;;;5032706;28;20469;-79
2021/09/08 02:24:36;;;;;;;4.95;4.70;;;23.70;49.60;;;;;;5032021;28;20048;-79
2021/09/08 02:27:02;;;;;;;4.93;4.72;;;23.60;49.60;;;;;;5030391;28;20461;-80
2021/09/08 02:29:28;;;;;;;4.78;4.57;;;23.60;49.70;;;;;;5028887;28;20486;-79
2021/09/08 02:31:54;;;;;;;4.90;4.70;;;23.60;49.80;;;;;;5029792;28;20038;-79
2021/09/08 02:34:20;;;;;;;4.80;4.60;;;23.50;49.80;;;;;;5032674;28;20056;-79
2021/09/08 02:36:46;;;;;;;5.55;5.05;;;23.60;49.90;;;;;;5025861;28;20022;-79
2021/09/08 02:39:12;;;;;;;5.03;4.78;;;23.50;49.90;;;;;;5031810;28;20038;-79
2021/09/08 02:41:38;;;;;;;4.88;4.57;;;23.50;50.00;;;;;;5033050;28;20417;-79
2021/09/08 02:44:04;;;;;;;4.78;4.57;;;23.50;50.10;;;;;;5034615;28;20037;-79
2021/09/08 02:46:30;;;;;;;4.53;4.32;;;23.40;50.20;;;;;;5033713;28;20397;-79
2021/09/08 02:48:57;;;;;;;5.30;5.00;;;23.40;50.30;;;;;;5033910;28;20105;-79
2021/09/08 02:51:23;;;;;;;5.43;5.13;;;23.40;50.40;;;;;;5033480;28;20017;-79
2021/09/08 02:53:49;;;;;;;5.40;5.10;;;23.30;50.40;;;;;;5033204;28;20024;-79
2021/09/08 02:56:15;;;;;;;4.82;4.57;;;23.30;50.50;;;;;;5032756;28;20021;-79
2021/09/08 02:58:41;;;;;;;4.80;4.47;;;23.30;50.50;;;;;;5033169;28;20025;-79
2021/09/08 03:01:10;;;;;;;4.90;4.70;;;23.30;50.50;;;;;;5033679;28;20394;-79
2021/09/08 03:03:36;;;;;;;4.90;4.65;;;23.30;50.60;;;;;;5033417;28;20034;-79
2021/09/08 03:06:02;;;;;;;4.82;4.63;;;23.30;50.70;;;;;;5033060;28;20470;-79
2021/09/08 03:08:28;;;;;;;4.80;4.60;;;23.30;50.80;;;;;;5033893;28;20133;-79
2021/09/08 03:10:54;;;;;;;4.53;4.32;;;23.20;50.80;;;;;;5034024;28;20505;-79
2021/09/08 03:13:20;;;;;;;4.70;4.50;;;23.30;50.80;;;;;;5032943;28;20038;-79
2021/09/08 03:15:46;;;;;;;5.07;4.72;;;23.30;50.80;;;;;;5031954;28;20036;-79
2021/09/08 03:18:13;;;;;;;4.82;4.63;;;23.30;50.90;;;;;;5031983;28;20044;-79
2021/09/08 03:20:39;;;;;;;5.30;4.90;;;23.20;51.00;;;;;;5033727;28;20026;-79
2021/09/08 03:23:05;;;;;;;4.85;4.65;;;23.20;51.10;;;;;;5032730;28;20033;-79
2021/09/08 03:25:31;;;;;;;4.72;4.53;;;23.20;51.20;;;;;;5033889;28;20401;-79
2021/09/08 03:27:57;;;;;;;5.10;4.80;;;23.10;51.30;;;;;;5034256;28;20263;-79
2021/09/08 03:30:24;;;;;;;4.85;4.65;;;23.10;51.30;;;;;;5033055;28;20044;-79
2021/09/08 03:32:50;;;;;;;5.15;4.88;;;23.10;51.40;;;;;;5032375;28;20029;-79
2021/09/08 03:35:16;;;;;;;4.68;4.47;;;23.10;51.50;;;;;;5032295;28;20049;-79
2021/09/08 03:37:42;;;;;;;4.95;4.65;;;23.10;52.20;;;;;;5033710;28;20066;-79
2021/09/08 03:40:09;;;;;;;4.57;4.38;;;23.00;51.70;;;;;;5033344;28;20038;-79
2021/09/08 03:42:36;;;;;;;4.88;4.63;;;23.00;51.90;;;;;;5033693;28;20034;-79
2021/09/08 03:45:03;;;;;;;5.07;4.88;;;22.90;52.00;;;;;;5032316;28;20033;-79
2021/09/08 03:47:29;;;;;;;5.97;5.18;;;22.90;52.10;;;;;;5031429;28;20540;-79
2021/09/08 03:49:55;;;;;;;5.47;5.22;;;22.90;52.20;;;;;;5033206;28;20044;-79
2021/09/08 03:52:21;;;;;;;5.43;5.13;;;22.90;52.20;;;;;;5033428;28;20402;-79
2021/09/08 03:54:47;;;;;;;5.20;5.00;;;22.90;52.30;;;;;;5032662;28;20033;-79
2021/09/08 03:57:14;;;;;;;6.18;5.63;;;22.90;52.40;;;;;;5032104;28;20029;-79
2021/09/08 03:59:40;;;;;;;6.13;5.82;;;22.90;52.50;;;;;;5031495;28;20029;-79
2021/09/08 04:02:06;;;;;;;5.43;5.15;;;22.80;52.50;;;;;;5030627;28;20048;-79
2021/09/08 04:04:32;;;;;;;5.80;5.50;;;22.80;52.60;;;;;;5033090;28;20018;-79
2021/09/08 04:06:58;;;;;;;5.28;5.07;;;22.80;52.70;;;;;;5032631;28;20033;-79
2021/09/08 04:09:24;;;;;;;5.45;5.15;;;22.80;52.70;;;;;;5031637;28;20072;-79
2021/09/08 04:11:50;;;;;;;5.90;5.47;;;22.80;52.80;;;;;;5031647;28;20021;-79
2021/09/08 04:14:16;;;;;;;5.50;5.20;;;22.80;52.70;;;;;;5032420;28;20036;-79
2021/09/08 04:16:42;;;;;;;5.53;5.25;;;22.80;52.80;;;;;;5032395;28;20037;-79
2021/09/08 04:19:08;;;;;;;5.13;4.93;;;22.80;52.90;;;;;;5033242;28;20048;-79
2021/09/08 04:21:34;;;;;;;5.80;5.50;;;22.80;53.00;;;;;;5032842;28;20025;-79
2021/09/08 04:24:01;;;;;;;5.25;4.95;;;22.80;53.00;;;;;;5031540;28;20044;-79
2021/09/08 04:26:27;;;;;;;5.15;4.95;;;22.80;53.20;;;;;;5032552;28;20087;-79
2021/09/08 04:28:53;;;;;;;5.20;4.90;;;22.70;53.20;;;;;;5032145;28;20041;-79
2021/09/08 04:31:19;;;;;;;5.00;4.80;;;22.70;53.20;;;;;;5014595;28;20030;-79
2021/09/08 04:33:45;;;;;;;5.05;4.80;;;22.70;53.20;;;;;;5031590;28;20042;-79
2021/09/08 04:36:11;;;;;;;4.90;4.70;;;22.80;53.20;;;;;;5031212;28;20025;-79
2021/09/08 04:38:37;;;;;;;4.70;4.50;;;22.80;53.20;;;;;;5032335;28;20398;-79
2021/09/08 04:41:03;;;;;;;5.32;5.03;;;22.80;53.20;;;;;;5032299;28;20031;-79
2021/09/08 04:43:30;;;;;;;5.03;4.82;;;22.90;53.20;;;;;;5032018;28;20486;-79
2021/09/08 04:45:56;;;;;;;4.97;4.78;;;22.90;53.10;;;;;;5031084;28;20433;-79
2021/09/08 04:48:22;;;;;;;5.00;4.80;;;23.00;53.10;;;;;;5030372;28;20049;-79
2021/09/08 04:50:48;;;;;;;5.28;5.03;;;23.00;53.10;;;;;;5031053;28;20041;-79
2021/09/08 04:53:14;;;;;;;5.82;5.40;;;23.10;53.10;;;;;;5030971;28;20034;-79
2021/09/08 04:55:40;;;;;;;5.70;5.40;;;23.10;53.20;;;;;;5032218;28;20036;-79
2021/09/08 04:58:07;;;;;;;5.68;5.38;;;23.10;53.10;;;;;;5032513;28;20029;-79
2021/09/08 05:00:33;;;;;;;5.20;5.00;;;23.10;53.20;;;;;;5031598;28;20034;-79
2021/09/08 05:03:00;;;;;;;5.78;5.40;;;23.10;53.30;;;;;;5030790;28;20025;-79
2021/09/08 05:05:26;;;;;;;5.43;5.15;;;23.10;53.30;;;;;;5031831;28;20029;-79
2021/09/08 05:07:52;;;;;;;5.63;5.00;;;23.10;53.40;;;;;;5031835;28;20053;-79
2021/09/08 05:10:18;;;;;;;5.57;5.10;;;23.10;53.40;;;;;;5032030;28;20042;-79
2021/09/08 05:12:44;;;;;;;5.40;5.10;;;23.10;53.50;;;;;;5032209;28;20025;-79
2021/09/08 05:15:10;;;;;;;5.07;4.80;;;23.10;53.60;;;;;;5013571;28;20041;-79
2021/09/08 05:17:36;;;;;;;5.30;5.03;;;23.10;53.60;;;;;;5031768;28;20021;-79
2021/09/08 05:20:04;;;;;;;5.10;4.90;;;23.10;53.60;;;;;;5030748;28;20052;-79
2021/09/08 05:22:30;;;;;;;4.78;4.57;;;23.10;53.70;;;;;;5030008;28;20048;-79
2021/09/08 05:24:56;;;;;;;5.28;4.97;;;23.10;53.80;;;;;;5031169;28;20383;-79
2021/09/08 05:27:23;;;;;;;4.80;4.50;;;23.10;53.80;;;;;;5030314;28;20036;-79
2021/09/08 05:29:49;;;;;;;4.72;4.53;;;23.10;53.90;;;;;;5030313;28;20048;-79
2021/09/08 05:32:15;;;;;;;5.15;4.95;;;23.10;54.00;;;;;;5031189;28;20430;-79
2021/09/08 05:34:41;;;;;;;5.00;4.70;;;23.10;54.10;;;;;;5013803;28;20033;-79
2021/09/08 05:37:07;;;;;;;5.20;4.90;;;23.10;54.10;;;;;;5014904;28;20018;-79
2021/09/08 05:39:33;;;;;;;4.57;4.38;;;23.10;54.20;;;;;;5031516;28;20052;-79
2021/09/08 05:41:59;;;;;;;5.30;4.90;;;23.10;54.20;;;;;;5030085;28;20033;-79
2021/09/08 05:44:25;;;;;;;4.95;4.65;;;23.10;54.30;;;;;;5029776;28;20481;-79
2021/09/08 05:46:51;;;;;;;8.73;4.93;;;23.10;54.30;;;;;;5029701;28;20034;-79
2021/09/08 05:49:18;;;;;;;8.05;4.95;;;23.10;54.40;;;;;;5031696;28;20065;-79
2021/09/08 05:51:44;;;;;;;5.05;4.85;;;23.10;54.50;;;;;;5032033;28;20553;-79
2021/09/08 05:54:10;;;;;;;5.07;4.78;;;23.10;54.50;;;;;;5030232;28;20033;-79
2021/09/08 05:56:36;;;;;;;5.50;5.20;;;23.10;54.60;;;;;;5030005;28;20033;-79
2021/09/08 05:59:02;;;;;;;4.80;4.60;;;23.10;54.60;;;;;;5031598;28;20033;-79
2021/09/08 06:01:28;;;;;;;5.63;5.32;;;23.10;54.70;;;;;;5031098;28;20042;-79
2021/09/08 06:03:55;;;;;;;5.25;5.03;;;23.10;54.80;;;;;;5032140;28;20025;-79
2021/09/08 06:06:21;;;;;;;5.50;5.20;;;23.10;54.80;;;;;;5030174;28;20379;-79
2021/09/08 06:08:47;;;;;;;5.40;5.10;;;23.10;54.90;;;;;;5031125;28;20045;-79
2021/09/08 06:11:13;;;;;;;5.28;4.97;;;23.10;54.90;;;;;;5029904;28;20029;-79
2021/09/08 06:13:39;;;;;;;5.13;4.82;;;23.10;54.90;;;;;;5029657;28;20042;-79
2021/09/08 06:16:05;;;;;;;5.82;5.53;;;23.10;55.00;;;;;;5031310;28;20486;-79
2021/09/08 06:18:31;;;;;;;5.30;5.00;;;23.20;55.00;;;;;;5031313;28;20049;-79
2021/09/08 06:20:58;;;;;;;5.00;4.78;;;23.20;55.00;;;;;;5031152;28;20049;-79
2021/09/08 06:23:24;;;;;;;5.15;4.95;;;23.30;55.10;;;;;;5031339;28;20041;-79
2021/09/08 06:25:50;;;;;;;5.55;5.25;;;23.30;55.10;;;;;;5030842;28;20030;-79
2021/09/08 06:28:18;;;;;;;5.05;4.78;;;23.30;55.10;;;;;;5010968;28;20478;-79
2021/09/08 06:30:44;;;;;;;5.50;5.20;;;23.40;55.10;;;;;;5033363;28;20391;-79
2021/09/08 06:33:11;;;;;;;10.57;5.40;;;23.50;55.10;;;;;;5034653;28;20040;-79
2021/09/08 06:35:37;;;;;;;4.90;4.70;;;23.50;55.10;;;;;;5034625;28;20028;-79
2021/09/08 06:38:03;;;;;;;5.15;4.85;;;23.50;55.20;;;;;;5034710;28;20055;-79
2021/09/08 06:40:29;;;;;;;5.90;5.53;;;23.50;55.20;;;;;;5016233;28;20490;-79
2021/09/08 06:42:55;;;;;;;5.30;5.00;;;23.50;55.30;;;;;;5035334;28;20089;-79
2021/09/08 06:45:22;;;;;;;5.50;5.10;;;23.60;55.40;;;;;;5032900;28;20490;-79
2021/09/08 06:47:48;;;;;;;5.70;5.40;;;23.60;55.40;;;;;;5034399;28;20371;-79
2021/09/08 06:50:14;;;;;;;5.50;5.20;;;23.60;55.40;;;;;;5034471;28;20036;-79
2021/09/08 06:52:40;;;;;;;5.60;5.30;;;23.60;55.50;;;;;;5033373;28;20377;-79
2021/09/08 06:55:06;;;;;;;5.10;4.90;;;23.70;55.60;;;;;;5033206;28;20180;-79
2021/09/08 06:57:33;;;;;;;5.40;5.10;;;23.70;55.60;;;;;;5032669;28;20037;-79
2021/09/08 06:59:59;;;;;;;5.63;5.30;;;23.70;55.60;;;;;;5034387;28;20022;-79
2021/09/08 07:02:25;;;;;;;5.38;5.00;;;23.80;55.70;;;;;;5014740;28;20045;-79
2021/09/08 07:04:52;;;;;;;6.45;6.05;;;23.80;55.70;;;;;;5034400;28;20033;-79
2021/09/08 07:07:20;;;;;;;5.50;5.20;;;23.90;55.70;;;;;;5032329;28;20041;-79
2021/09/08 07:09:46;;;;;;;6.30;5.90;;;23.90;55.70;;;;;;5009620;28;20045;-79
2021/09/08 07:12:12;;;;;;;5.78;5.47;;;24.10;55.60;;;;;;5016535;28;20021;-79
2021/09/08 07:14:38;;;;;;;6.70;6.20;;;24.30;55.40;;;;;;5033859;28;20033;-79
2021/09/08 07:17:04;;;;;;;6.90;6.60;;;24.70;55.00;;;;;;5033663;28;20399;-79
2021/09/08 07:19:32;;;;;;;7.80;7.30;;;25.10;54.50;;;;;;5033909;28;20034;-79
2021/09/08 07:21:58;;;;;;;7.88;7.47;;;25.50;54.10;;;;;;5032151;28;20034;-80
2021/09/08 07:24:24;;;;;;;15.00;14.30;;;25.80;53.70;;;;;;5032592;28;20033;-79
2021/09/08 07:26:55;;;;;;;8.95;8.35;;;26.10;53.40;;;;;;5033630;28;20029;-79
2021/09/08 07:29:21;;;;;;;9.32;8.82;;;26.40;53.20;;;;;;5032525;28;20034;-79
2021/09/08 07:31:47;;;;;;;10.27;9.77;;;26.50;53.00;;;;;;5033177;28;20040;-80
2021/09/08 07:34:13;;;;;;;9.55;9.05;;;26.60;53.00;;;;;;5033757;28;20033;-79
2021/09/08 07:36:39;;;;;;;11.85;11.25;;;26.80;52.90;;;;;;5032508;28;20025;-79
2021/09/08 07:39:05;;;;;;;10.70;10.20;;;27.00;53.40;;;;;;5032270;28;20026;-80
2021/09/08 07:41:31;;;;;;;11.93;11.32;;;27.20;52.60;;;;;;5032053;28;20045;-79
2021/09/08 07:43:58;;;;;;;11.68;11.13;;;27.20;52.50;;;;;;5033407;28;20504;-80
2021/09/08 07:46:24;;;;;;;11.32;10.73;;;27.20;52.60;;;;;;5032917;28;20486;-79
2021/09/08 07:48:50;;;;;;;17.50;16.63;;;27.20;52.70;;;;;;5032736;28;20028;-80
2021/09/08 07:51:16;;;;;;;12.82;12.10;;;27.10;52.80;;;;;;5015301;28;20661;-80
2021/09/08 07:53:42;;;;;;;12.88;12.20;;;27.10;52.80;;;;;;5033173;28;20052;-80
2021/09/08 07:56:09;;;;;;;13.88;13.20;;;27.20;52.80;;;;;;5033189;28;20033;-79
2021/09/08 07:58:35;;;;;;;13.98;13.27;;;27.30;52.70;;;;;;5015796;28;20367;-79
2021/09/08 08:01:01;;;;;;;12.63;12.02;;;27.50;52.50;;;;;;5033198;28;20033;-80
2021/09/08 08:03:27;;;;;;;13.32;12.73;;;27.70;52.30;;;;;;5033232;28;20033;-80
2021/09/08 08:05:53;;;;;;;13.25;12.48;;;28.10;52.00;;;;;;5031633;28;20469;-80
2021/09/08 08:08:19;;;;;;;11.60;11.00;;;28.30;51.50;;;;;;5031019;28;20048;-80
2021/09/08 08:10:46;;;;;;;10.70;10.20;;;28.60;51.20;;;;;;5032810;28;20049;-80
2021/09/08 08:13:12;;;;;;;12.82;12.23;;;28.60;51.20;;;;;;5031963;28;20059;-80
2021/09/08 08:15:38;;;;;;;11.38;10.57;;;28.60;51.10;;;;;;5032759;28;20497;-80
2021/09/08 08:18:04;;;;;;;12.55;11.95;;;28.70;51.00;;;;;;5032786;28;20030;-80
2021/09/08 08:20:30;;;;;;;12.90;12.30;;;28.70;51.00;;;;;;5032349;28;20029;-80
2021/09/08 08:22:56;;;;;;;12.88;12.27;;;28.60;50.90;;;;;;5031635;28;20390;-80
2021/09/08 08:25:30;;;;;;;14.02;12.93;;;28.60;50.90;;;;;;5031669;28;20029;-80
2021/09/08 08:27:57;;;;;;;12.60;12.00;;;28.70;50.90;;;;;;5015628;28;20041;-80
2021/09/08 08:30:23;;;;;;;13.05;12.45;;;28.70;51.30;;;;;;5031988;28;20402;-80
2021/09/08 08:32:49;;;;;;;13.52;12.93;;;28.80;50.70;;;;;;5032394;28;20029;-80
2021/09/08 08:35:16;;;;;;;17.02;16.20;;;28.90;50.60;;;;;;5030943;28;20025;-80
2021/09/08 08:37:42;;;;;;;12.77;12.18;;;29.00;50.90;;;;;;5032726;28;20021;-80
2021/09/08 08:40:09;;;;;;;15.90;15.10;;;29.20;50.00;;;;;;5033169;28;20492;-80
2021/09/08 08:42:35;;;;;;;16.77;15.75;;;29.20;49.80;;;;;;5032454;28;20501;-80
2021/09/08 08:45:01;;;;;;;14.77;14.07;;;29.30;49.80;;;;;;5014807;28;20204;-80
2021/09/08 08:47:27;;;;;;;14.88;14.18;;;29.50;49.60;;;;;;5031417;28;20037;-80
2021/09/08 08:49:54;;;;;;;14.15;13.45;;;29.60;49.30;;;;;;5029870;28;20046;-80
2021/09/08 08:52:20;;;;;;;12.88;12.15;;;29.80;49.10;;;;;;5031222;28;20478;-80
2021/09/08 08:54:46;;;;;;;15.05;14.10;;;29.80;49.00;;;;;;5032759;28;20037;-80
2021/09/08 08:57:14;;;;;;;17.05;16.25;;;29.90;48.90;;;;;;5030754;28;20044;-80
2021/09/08 08:59:41;;;;;;;16.58;15.77;;;30.00;48.80;;;;;;5030876;28;20056;-80
2021/09/08 09:02:27;;;;;;;16.63;15.38;;;30.10;48.70;;;;;;5031164;28;20026;-80
2021/09/08 09:04:58;;;;;;;15.95;15.23;;;29.90;48.50;;;;;;4997237;28;20037;-80
2021/09/08 09:07:26;;;;;;;;;;;29.80;48.60;;;;;;5032415;28;20025;-80
2021/09/08 09:09:56;;;;;;;12.30;11.40;;;29.60;48.80;;;;;;5032468;28;20472;-80
2021/09/08 09:12:32;;;;;;;13.50;12.82;;;29.60;48.90;;;;;;5030659;28;20386;-80
2021/09/08 09:14:59;;;;;;;12.85;11.68;;;29.80;48.80;;;;;;5031451;28;20048;-80
2021/09/08 09:17:27;;;;;;;19.38;18.48;;;30.00;48.50;;;;;;5031036;28;20025;-80
2021/09/08 09:19:53;;;;;;;17.92;17.10;;;30.20;48.30;;;;;;5031684;28;20489;-80
2021/09/08 09:22:19;;;;;;;15.90;15.15;;;30.50;47.90;;;;;;5030661;28;20034;-80
2021/09/08 09:24:51;;;;;;;15.07;14.38;;;30.70;47.40;;;;;;5014709;28;20032;-80
2021/09/08 09:27:17;;;;;;;16.20;15.32;;;30.90;47.30;;;;;;5031772;28;20033;-80
2021/09/08 09:29:43;;;;;;;12.20;11.57;;;30.90;47.10;;;;;;5030401;28;20040;-80
2021/09/08 09:32:11;;;;;;;13.18;12.57;;;30.80;47.20;;;;;;5031574;28;20410;-80
2021/09/08 09:34:38;;;;;;;13.30;12.68;;;30.90;47.30;;;;;;5014004;28;20056;-80
2021/09/08 09:37:05;;;;;;;13.85;13.07;;;31.00;47.00;;;;;;5014847;28;20447;-80
2021/09/08 09:39:32;;;;;;;11.40;10.90;;;31.10;46.90;;;;;;5030292;28;20390;-80
2021/09/08 09:42:05;;;;;;;11.55;11.02;;;31.10;46.80;;;;;;5030319;28;20036;-80
2021/09/08 09:44:31;;;;;;;10.98;10.48;;;31.00;46.70;;;;;;5031516;28;20026;-80
2021/09/08 09:46:58;;;;;;;12.48;11.88;;;31.00;46.80;;;;;;5029059;28;20029;-80
2021/09/08 09:49:24;;;;;;;11.45;10.40;;;30.90;46.80;;;;;;5030516;28;20029;-80
2021/09/08 09:51:54;;;;;;;11.90;11.25;;;30.70;46.90;;;;;;5029147;28;20044;-80
2021/09/08 09:54:22;;;;;;;11.65;11.00;;;30.60;47.00;;;;;;5030399;28;20381;-80
2021/09/08 09:56:48;;;;;;;13.25;12.65;;;30.40;47.20;;;;;;5029607;28;20237;-80
2021/09/08 09:59:14;;;;;;;10.15;9.65;;;30.20;47.40;;;;;;5030405;28;20093;-80
2021/09/08 10:01:41;;;;;;;15.07;14.30;;;30.10;47.40;;;;;;5030800;28;20045;-80
2021/09/08 10:04:08;;;;;;;10.77;10.27;;;30.10;47.50;;;;;;5031131;28;20458;-80
2021/09/08 10:06:34;;;;;;;9.52;9.02;;;30.00;47.50;;;;;;5005905;28;20048;-80
2021/09/08 10:09:00;;;;;;;9.55;9.10;;;29.90;47.50;;;;;;5029324;28;20034;-80
2021/09/08 10:11:32;;;;;;;13.48;12.77;;;29.80;47.60;;;;;;5033865;28;20109;-80
2021/09/08 10:14:15;;;;;;;9.95;9.45;;;29.80;48.30;;;;;;5034907;28;20033;-79
2021/09/08 10:16:47;;;;;;;9.60;9.10;;;29.60;47.70;;;;;;5017981;28;20532;-80
2021/09/08 10:19:31;;;;;;;8.77;8.38;;;29.50;47.90;;;;;;5035339;28;20044;-79
2021/09/08 10:22:05;;;;;;;10.98;10.48;;;29.40;47.90;;;;;;5034794;28;20021;-80
2021/09/08 10:24:32;;;;;;;15.13;13.52;;;29.30;48.00;;;;;;5033781;28;20029;-80
2021/09/08 10:26:58;;;;;;;16.35;15.55;;;29.20;48.20;;;;;;5034187;28;20033;-80
2021/09/08 10:29:28;;;;;;;15.85;15.15;;;29.10;48.30;;;;;;5033508;28;20026;-80
2021/09/08 10:31:56;;;;;;;13.60;13.00;;;29.00;48.30;;;;;;5034088;28;20037;-79
2021/09/08 10:34:22;;;;;;;12.10;11.50;;;28.90;48.30;;;;;;5033591;28;20017;-80
2021/09/08 10:36:48;;;;;;;11.15;10.65;;;29.00;48.40;;;;;;5010832;28;20397;-80
2021/09/08 10:39:18;;;;;;;14.93;14.20;;;29.10;48.20;;;;;;5017250;28;20040;-81
2021/09/08 10:41:53;;;;;;;13.55;12.93;;;29.20;48.20;;;;;;5033527;28;20029;-80
2021/09/08 10:44:20;;;;;;;15.75;15.05;;;29.20;48.00;;;;;;5033322;28;20039;-80
2021/09/08 10:46:54;;;;;;;15.35;14.65;;;29.30;48.00;;;;;;5031859;28;20394;-80
2021/09/08 10:49:39;;;;;;;11.88;11.18;;;29.30;47.90;;;;;;5032766;28;20041;-80
2021/09/08 10:52:06;;;;;;;9.38;8.95;;;29.40;47.80;;;;;;5030612;28;20390;-80
2021/09/08 10:54:32;;;;;;;8.60;8.20;;;29.40;47.80;;;;;;5033327;28;20029;-80
2021/09/08 10:56:58;;;;;;;11.95;11.35;;;29.40;47.80;;;;;;5033256;28;20033;-80
2021/09/08 10:59:25;;;;;;;9.80;9.20;;;29.40;47.80;;;;;;5034359;28;20034;-80
2021/09/08 11:01:52;;;;;;;9.98;9.38;;;29.40;47.80;;;;;;5032312;28;20045;-80
2021/09/08 11:04:18;;;;;;;11.18;10.52;;;29.30;47.80;;;;;;5033832;28;20214;-80
2021/09/08 11:06:46;;;;;;;12.38;11.77;;;29.30;47.90;;;;;;5034822;28;20029;-80
2021/09/08 11:09:13;;;;;;;12.32;11.73;;;29.30;47.90;;;;;;5033287;28;20036;-80
2021/09/08 11:11:52;;;;;;;16.80;16.00;;;29.20;48.00;;;;;;5032763;28;20034;-80
2021/09/08 11:14:19;;;;;;;16.48;15.63;;;29.10;48.10;;;;;;5033570;28;20036;-80
2021/09/08 11:16:46;;;;;;;16.20;15.30;;;29.10;48.10;;;;;;5016034;28;20030;-80
2021/09/08 11:19:13;;;;;;;16.70;15.90;;;29.10;48.20;;;;;;5032285;28;20037;-80
2021/09/08 11:21:39;;;;;;;15.23;14.52;;;29.00;48.20;;;;;;5034557;28;20033;-80
2021/09/08 11:24:08;;;;;;;14.50;13.60;;;29.00;48.80;;;;;;5016307;28;20029;-80
2021/09/08 11:26:36;;;;;;;16.13;15.10;;;28.90;48.20;;;;;;5032091;28;20045;-80
2021/09/08 11:29:06;;;;;;;12.27;11.63;;;28.90;48.30;;;;;;5032943;28;20037;-80
2021/09/08 11:31:40;;;;;;;11.50;10.97;;;28.90;48.30;;;;;;5033114;28;20049;-80
2021/09/08 11:34:27;;;;;;;10.48;9.98;;;28.70;48.30;;;;;;5029100;28;20028;-80
2021/09/08 11:36:57;;;;;;;10.73;10.23;;;28.70;48.60;;;;;;5031074;28;20045;-80
2021/09/08 11:39:24;;;;;;;11.33;10.70;;;28.70;48.60;;;;;;5033148;28;20030;-80
2021/09/08 11:42:07;;;;;;;10.20;9.60;;;28.70;48.50;;;;;;5033887;28;20311;-81
2021/09/08 11:44:34;;;;;;;9.63;9.13;;;28.70;48.50;;;;;;5033330;28;20025;-80
2021/09/08 11:47:00;;;;;;;11.50;10.90;;;28.80;48.30;;;;;;5031684;28;20033;-80
2021/09/08 11:49:26;;;;;;;12.27;11.57;;;29.00;48.30;;;;;;5033420;28;20030;-81
2021/09/08 11:51:52;;;;;;;14.98;14.18;;;29.20;48.10;;;;;;5032662;28;20381;-80
2021/09/08 11:54:21;;;;;;;20.30;19.20;;;29.40;47.80;;;;;;5032124;28;20033;-81
2021/09/08 11:57:01;;;;;;;25.70;24.50;;;29.70;47.60;;;;;;5033387;28;20025;-80
2021/09/08 11:59:30;;;;;;;19.45;18.55;;;29.90;47.30;;;;;;5030667;28;20053;-80
2021/09/08 12:01:57;;;;;;;16.25;15.45;;;30.20;47.20;;;;;;5030801;28;20025;-80
2021/09/08 12:04:24;;;;;;;14.73;14.02;;;30.40;46.90;;;;;;5032000;28;20025;-81
2021/09/08 12:07:00;;;;;;;13.75;13.07;;;30.50;46.70;;;;;;5013683;28;20576;-80
2021/09/08 12:09:27;;;;;;;15.35;14.18;;;30.60;46.60;;;;;;5033040;28;20048;-81
2021/09/08 12:11:55;;;;;;;13.98;13.27;;;30.80;46.50;;;;;;5031648;28;20029;-81
2021/09/08 12:14:21;;;;;;;12.18;11.48;;;30.90;46.40;;;;;;5031779;28;20044;-81
2021/09/08 12:16:52;;;;;;;10.93;10.43;;;31.10;46.30;;;;;;5032668;28;20029;-80
2021/09/08 12:19:27;;;;;;;10.55;10.05;;;31.10;46.00;;;;;;4996820;28;20038;-81
2021/09/08 12:22:17;;;;;;;10.63;10.05;;;31.00;46.10;;;;;;5031817;28;20022;-81
2021/09/08 12:24:44;;;;;;;12.65;11.95;;;30.90;46.20;;;;;;5000195;28;20034;-80
2021/09/08 12:27:35;;;;;;;11.77;11.18;;;30.90;46.30;;;;;;5031719;28;20044;-80
2021/09/08 12:30:08;;;;;;;13.25;12.57;;;30.90;46.20;;;;;;5031305;28;20029;-80
2021/09/08 12:32:58;;;;;;;11.52;10.93;;;31.00;46.10;;;;;;5030652;28;20040;-80
2021/09/08 12:35:56;;;;;;;11.95;11.35;;;31.10;46.00;;;;;;5032558;28;20021;-80
2021/09/08 12:38:38;;;;;;;11.27;10.68;;;31.20;45.90;;;;;;5030026;28;20044;-81
2021/09/08 12:41:11;;;;;;;11.23;10.65;;;31.20;45.90;;;;;;5032142;28;20032;-80